sensor_id;sensor_type;location;lat;lon;timestamp;temperature;humidity
23629;DHT22;11991;57.150;-2.134;2023-10-19T00:00:43;11.50;99.90
23629;DHT22;11991;57.150;-2.134;2023-10-19T00:03:17;11.50;99.90
23629;DHT22;11991;57.150;-2.134;2023-10-19T00:05:45;11.50;99.90
23629;DHT22;11991;57.150;-2.134;2023-10-19T00:08:13;11.50;99.90
23629;DHT22;11991;57.150;-2.134;2023-10-19T00:10:50;11.50;99.90
23629;DHT22;11991;57.150;-2.134;2023-10-19T00:13:29;11.50;99.90
23629;DHT22;11991;57.150;-2.134;2023-10-19T00:15:57;11.50;99.90
23629;DHT22;11991;57.150;-2.134;2023-10-19T00:18:24;11.50;99.90
23629;DHT22;11991;57.150;-2.134;2023-10-19T00:20:53;11.50;99.90
23629;DHT22;11991;57.150;-2.134;2023-10-19T00:23:26;11.50;99.90
23629;DHT22;11991;57.150;-2.134;2023-10-19T00:25:57;11.50;99.90
23629;DHT22;11991;57.150;-2.134;2023-10-19T00:28:26;11.50;99.90
23629;DHT22;11991;57.150;-2.134;2023-10-19T00:30:56;11.50;99.90
23629;DHT22;11991;57.150;-2.134;2023-10-19T00:33:30;11.50;99.90
23629;DHT22;11991;57.150;-2.134;2023-10-19T00:36:00;11.50;99.90
23629;DHT22;11991;57.150;-2.134;2023-10-19T00:38:34;11.50;99.90
23629;DHT22;11991;57.150;-2.134;2023-10-19T00:41:03;11.50;99.90
23629;DHT22;11991;57.150;-2.134;2023-10-19T00:43:41;11.50;99.90
23629;DHT22;11991;57.150;-2.134;2023-10-19T00:46:16;11.50;99.90
23629;DHT22;11991;57.150;-2.134;2023-10-19T00:48:59;11.50;99.90
23629;DHT22;11991;57.150;-2.134;2023-10-19T00:51:29;11.50;99.90
23629;DHT22;11991;57.150;-2.134;2023-10-19T00:54:05;11.50;99.90
23629;DHT22;11991;57.150;-2.134;2023-10-19T00:56:37;11.50;99.90
23629;DHT22;11991;57.150;-2.134;2023-10-19T00:59:08;11.50;99.90
23629;DHT22;11991;57.150;-2.134;2023-10-19T01:01:42;11.50;99.90
23629;DHT22;11991;57.150;-2.134;2023-10-19T01:04:15;11.50;99.90
23629;DHT22;11991;57.150;-2.134;2023-10-19T01:06:50;11.50;99.90
23629;DHT22;11991;57.150;-2.134;2023-10-19T01:09:39;11.50;99.90
23629;DHT22;11991;57.150;-2.134;2023-10-19T01:12:07;11.50;99.90
23629;DHT22;11991;57.150;-2.134;2023-10-19T01:15:10;11.50;99.90
23629;DHT22;11991;57.150;-2.134;2023-10-19T01:17:49;11.50;99.90
23629;DHT22;11991;57.150;-2.134;2023-10-19T01:20:21;11.60;99.90
23629;DHT22;11991;57.150;-2.134;2023-10-19T01:23:03;11.50;99.90
23629;DHT22;11991;57.150;-2.134;2023-10-19T01:28:09;11.50;99.90
23629;DHT22;11991;57.150;-2.134;2023-10-19T01:30:37;11.50;99.90
23629;DHT22;11991;57.150;-2.134;2023-10-19T01:33:05;11.50;99.90
23629;DHT22;11991;57.150;-2.134;2023-10-19T01:35:40;11.50;99.90
23629;DHT22;11991;57.150;-2.134;2023-10-19T01:38:27;11.50;99.90
23629;DHT22;11991;57.150;-2.134;2023-10-19T01:40:58;11.50;99.90
23629;DHT22;11991;57.150;-2.134;2023-10-19T01:43:32;11.50;99.90
23629;DHT22;11991;57.150;-2.134;2023-10-19T01:46:00;11.50;99.90
23629;DHT22;11991;57.150;-2.134;2023-10-19T01:48:48;11.50;99.90
23629;DHT22;11991;57.150;-2.134;2023-10-19T01:51:24;11.50;99.90
23629;DHT22;11991;57.150;-2.134;2023-10-19T01:54:06;11.50;99.90
23629;DHT22;11991;57.150;-2.134;2023-10-19T01:56:35;11.50;99.90
23629;DHT22;11991;57.150;-2.134;2023-10-19T01:59:04;11.50;99.90
23629;DHT22;11991;57.150;-2.134;2023-10-19T02:01:32;11.50;99.90
23629;DHT22;11991;57.150;-2.134;2023-10-19T02:04:05;11.50;99.90
23629;DHT22;11991;57.150;-2.134;2023-10-19T02:06:34;11.50;99.90
23629;DHT22;11991;57.150;-2.134;2023-10-19T02:09:09;11.50;99.90
23629;DHT22;11991;57.150;-2.134;2023-10-19T02:11:48;11.50;99.90
23629;DHT22;11991;57.150;-2.134;2023-10-19T02:14:17;11.50;99.90
23629;DHT22;11991;57.150;-2.134;2023-10-19T02:16:50;11.50;99.90
23629;DHT22;11991;57.150;-2.134;2023-10-19T02:19:20;11.50;99.90
23629;DHT22;11991;57.150;-2.134;2023-10-19T02:21:50;11.50;99.90
23629;DHT22;11991;57.150;-2.134;2023-10-19T02:24:19;11.50;99.90
23629;DHT22;11991;57.150;-2.134;2023-10-19T02:26:50;11.50;99.90
23629;DHT22;11991;57.150;-2.134;2023-10-19T02:29:18;11.50;99.90
23629;DHT22;11991;57.150;-2.134;2023-10-19T02:31:45;11.50;99.90
23629;DHT22;11991;57.150;-2.134;2023-10-19T02:34:14;11.50;99.90
23629;DHT22;11991;57.150;-2.134;2023-10-19T02:36:43;11.50;99.90
23629;DHT22;11991;57.150;-2.134;2023-10-19T02:39:12;11.50;99.90
23629;DHT22;11991;57.150;-2.134;2023-10-19T02:41:46;11.50;99.90
23629;DHT22;11991;57.150;-2.134;2023-10-19T02:44:19;11.50;99.90
23629;DHT22;11991;57.150;-2.134;2023-10-19T02:46:47;11.50;99.90
23629;DHT22;11991;57.150;-2.134;2023-10-19T02:49:16;11.50;99.90
23629;DHT22;11991;57.150;-2.134;2023-10-19T02:51:50;11.50;99.90
23629;DHT22;11991;57.150;-2.134;2023-10-19T02:54:20;11.50;99.90
23629;DHT22;11991;57.150;-2.134;2023-10-19T02:56:50;11.50;99.90
23629;DHT22;11991;57.150;-2.134;2023-10-19T02:59:21;11.50;99.90
23629;DHT22;11991;57.150;-2.134;2023-10-19T03:01:52;11.50;99.90
23629;DHT22;11991;57.150;-2.134;2023-10-19T03:04:19;11.50;99.90
23629;DHT22;11991;57.150;-2.134;2023-10-19T03:06:47;11.50;99.90
23629;DHT22;11991;57.150;-2.134;2023-10-19T03:09:16;11.50;99.90
23629;DHT22;11991;57.150;-2.134;2023-10-19T03:11:50;11.50;99.90
23629;DHT22;11991;57.150;-2.134;2023-10-19T03:14:21;11.50;99.90
23629;DHT22;11991;57.150;-2.134;2023-10-19T03:16:53;11.50;99.90
23629;DHT22;11991;57.150;-2.134;2023-10-19T03:19:23;11.50;99.90
23629;DHT22;11991;57.150;-2.134;2023-10-19T03:21:54;11.50;99.90
23629;DHT22;11991;57.150;-2.134;2023-10-19T03:24:27;11.50;99.90
23629;DHT22;11991;57.150;-2.134;2023-10-19T03:27:07;11.50;99.90
23629;DHT22;11991;57.150;-2.134;2023-10-19T03:29:44;11.50;99.90
23629;DHT22;11991;57.150;-2.134;2023-10-19T03:32:15;11.40;99.90
23629;DHT22;11991;57.150;-2.134;2023-10-19T03:34:44;11.40;99.90
23629;DHT22;11991;57.150;-2.134;2023-10-19T03:37:14;11.40;99.90
23629;DHT22;11991;57.150;-2.134;2023-10-19T03:39:42;11.40;99.90
23629;DHT22;11991;57.150;-2.134;2023-10-19T03:42:12;11.40;99.90
23629;DHT22;11991;57.150;-2.134;2023-10-19T03:44:43;11.40;99.90
23629;DHT22;11991;57.150;-2.134;2023-10-19T03:47:17;11.40;99.90
23629;DHT22;11991;57.150;-2.134;2023-10-19T03:49:48;11.40;99.90
23629;DHT22;11991;57.150;-2.134;2023-10-19T03:52:18;11.40;99.90
23629;DHT22;11991;57.150;-2.134;2023-10-19T03:54:46;11.40;99.90
23629;DHT22;11991;57.150;-2.134;2023-10-19T03:57:17;11.50;99.90
23629;DHT22;11991;57.150;-2.134;2023-10-19T03:59:56;11.50;99.90
23629;DHT22;11991;57.150;-2.134;2023-10-19T04:02:28;11.40;99.90
23629;DHT22;11991;57.150;-2.134;2023-10-19T04:05:05;11.40;99.90
23629;DHT22;11991;57.150;-2.134;2023-10-19T04:07:32;11.40;99.90
23629;DHT22;11991;57.150;-2.134;2023-10-19T04:10:00;11.40;99.90
23629;DHT22;11991;57.150;-2.134;2023-10-19T04:12:34;11.50;99.90
23629;DHT22;11991;57.150;-2.134;2023-10-19T04:15:04;11.40;99.90
23629;DHT22;11991;57.150;-2.134;2023-10-19T04:17:44;11.50;99.90
23629;DHT22;11991;57.150;-2.134;2023-10-19T04:20:14;11.50;99.90
23629;DHT22;11991;57.150;-2.134;2023-10-19T04:25:12;11.50;99.90
23629;DHT22;11991;57.150;-2.134;2023-10-19T04:27:40;11.50;99.90
23629;DHT22;11991;57.150;-2.134;2023-10-19T04:30:09;11.50;99.90
23629;DHT22;11991;57.150;-2.134;2023-10-19T04:32:43;11.50;99.90
23629;DHT22;11991;57.150;-2.134;2023-10-19T04:35:11;11.40;99.90
23629;DHT22;11991;57.150;-2.134;2023-10-19T04:37:40;11.40;99.90
23629;DHT22;11991;57.150;-2.134;2023-10-19T04:40:11;11.40;99.90
23629;DHT22;11991;57.150;-2.134;2023-10-19T04:42:39;11.40;99.90
23629;DHT22;11991;57.150;-2.134;2023-10-19T04:45:06;11.40;99.90
23629;DHT22;11991;57.150;-2.134;2023-10-19T04:47:34;11.40;99.90
23629;DHT22;11991;57.150;-2.134;2023-10-19T04:50:03;11.40;99.90
23629;DHT22;11991;57.150;-2.134;2023-10-19T04:52:31;11.40;99.90
23629;DHT22;11991;57.150;-2.134;2023-10-19T04:54:58;11.40;99.90
23629;DHT22;11991;57.150;-2.134;2023-10-19T04:57:26;11.50;99.90
23629;DHT22;11991;57.150;-2.134;2023-10-19T04:59:53;11.50;99.90
23629;DHT22;11991;57.150;-2.134;2023-10-19T05:02:20;11.40;99.90
23629;DHT22;11991;57.150;-2.134;2023-10-19T05:04:47;11.40;99.90
23629;DHT22;11991;57.150;-2.134;2023-10-19T05:07:16;11.40;99.90
23629;DHT22;11991;57.150;-2.134;2023-10-19T05:09:45;11.40;99.90
23629;DHT22;11991;57.150;-2.134;2023-10-19T05:12:13;11.40;99.90
23629;DHT22;11991;57.150;-2.134;2023-10-19T05:14:42;11.40;99.90
23629;DHT22;11991;57.150;-2.134;2023-10-19T05:17:10;11.40;99.90
23629;DHT22;11991;57.150;-2.134;2023-10-19T05:19:39;11.40;99.90
23629;DHT22;11991;57.150;-2.134;2023-10-19T05:22:08;11.40;99.90
23629;DHT22;11991;57.150;-2.134;2023-10-19T05:24:36;11.40;99.90
23629;DHT22;11991;57.150;-2.134;2023-10-19T05:27:03;11.40;99.90
23629;DHT22;11991;57.150;-2.134;2023-10-19T05:29:31;11.40;99.90
23629;DHT22;11991;57.150;-2.134;2023-10-19T05:32:03;11.40;99.90
23629;DHT22;11991;57.150;-2.134;2023-10-19T05:34:30;11.40;99.90
23629;DHT22;11991;57.150;-2.134;2023-10-19T05:37:00;11.40;99.90
23629;DHT22;11991;57.150;-2.134;2023-10-19T05:39:29;11.40;99.90
23629;DHT22;11991;57.150;-2.134;2023-10-19T05:41:58;11.40;99.90
23629;DHT22;11991;57.150;-2.134;2023-10-19T05:44:29;11.50;99.90
23629;DHT22;11991;57.150;-2.134;2023-10-19T05:46:58;11.50;99.90
23629;DHT22;11991;57.150;-2.134;2023-10-19T05:49:26;11.50;99.90
23629;DHT22;11991;57.150;-2.134;2023-10-19T05:51:53;11.40;99.90
23629;DHT22;11991;57.150;-2.134;2023-10-19T05:54:20;11.50;99.90
23629;DHT22;11991;57.150;-2.134;2023-10-19T05:56:51;11.50;99.90
23629;DHT22;11991;57.150;-2.134;2023-10-19T05:59:18;11.50;99.90
23629;DHT22;11991;57.150;-2.134;2023-10-19T06:01:46;11.50;99.90
23629;DHT22;11991;57.150;-2.134;2023-10-19T06:04:14;11.50;99.90
23629;DHT22;11991;57.150;-2.134;2023-10-19T06:06:44;11.50;99.90
23629;DHT22;11991;57.150;-2.134;2023-10-19T06:09:11;11.50;99.90
23629;DHT22;11991;57.150;-2.134;2023-10-19T06:11:38;11.50;99.90
23629;DHT22;11991;57.150;-2.134;2023-10-19T06:14:09;11.50;99.90
23629;DHT22;11991;57.150;-2.134;2023-10-19T06:16:36;11.50;99.90
23629;DHT22;11991;57.150;-2.134;2023-10-19T06:19:04;11.40;99.90
23629;DHT22;11991;57.150;-2.134;2023-10-19T06:21:32;11.40;99.90
23629;DHT22;11991;57.150;-2.134;2023-10-19T06:24:01;11.40;99.90
23629;DHT22;11991;57.150;-2.134;2023-10-19T06:26:30;11.40;99.90
23629;DHT22;11991;57.150;-2.134;2023-10-19T06:28:57;11.40;99.90
23629;DHT22;11991;57.150;-2.134;2023-10-19T06:31:27;11.40;99.90
23629;DHT22;11991;57.150;-2.134;2023-10-19T06:33:56;11.50;99.90
23629;DHT22;11991;57.150;-2.134;2023-10-19T06:36:24;11.40;99.90
23629;DHT22;11991;57.150;-2.134;2023-10-19T06:38:52;11.50;99.90
23629;DHT22;11991;57.150;-2.134;2023-10-19T06:41:21;11.50;99.90
23629;DHT22;11991;57.150;-2.134;2023-10-19T06:43:49;11.50;99.90
23629;DHT22;11991;57.150;-2.134;2023-10-19T06:46:17;11.50;99.90
23629;DHT22;11991;57.150;-2.134;2023-10-19T06:48:53;11.50;99.90
23629;DHT22;11991;57.150;-2.134;2023-10-19T06:51:23;11.50;99.90
23629;DHT22;11991;57.150;-2.134;2023-10-19T06:53:53;11.50;99.90
23629;DHT22;11991;57.150;-2.134;2023-10-19T06:56:20;11.50;99.90
23629;DHT22;11991;57.150;-2.134;2023-10-19T06:58:47;11.40;99.90
23629;DHT22;11991;57.150;-2.134;2023-10-19T07:01:15;11.50;99.90
23629;DHT22;11991;57.150;-2.134;2023-10-19T07:03:44;11.50;99.90
23629;DHT22;11991;57.150;-2.134;2023-10-19T07:06:12;11.50;99.90
23629;DHT22;11991;57.150;-2.134;2023-10-19T07:08:41;11.50;99.90
23629;DHT22;11991;57.150;-2.134;2023-10-19T07:11:08;11.50;99.90
23629;DHT22;11991;57.150;-2.134;2023-10-19T07:13:36;11.60;99.90
23629;DHT22;11991;57.150;-2.134;2023-10-19T07:16:03;11.60;99.90
23629;DHT22;11991;57.150;-2.134;2023-10-19T07:18:31;11.60;99.90
23629;DHT22;11991;57.150;-2.134;2023-10-19T07:20:58;11.60;99.90
23629;DHT22;11991;57.150;-2.134;2023-10-19T07:23:32;11.50;99.90
23629;DHT22;11991;57.150;-2.134;2023-10-19T07:25:59;11.50;99.90
23629;DHT22;11991;57.150;-2.134;2023-10-19T07:28:27;11.60;99.90
23629;DHT22;11991;57.150;-2.134;2023-10-19T07:30:55;11.50;99.90
23629;DHT22;11991;57.150;-2.134;2023-10-19T07:33:23;11.60;99.90
23629;DHT22;11991;57.150;-2.134;2023-10-19T07:35:51;11.60;99.90
23629;DHT22;11991;57.150;-2.134;2023-10-19T07:38:23;11.60;99.90
23629;DHT22;11991;57.150;-2.134;2023-10-19T07:40:50;11.60;99.90
23629;DHT22;11991;57.150;-2.134;2023-10-19T07:43:21;11.60;99.90
23629;DHT22;11991;57.150;-2.134;2023-10-19T07:45:49;11.60;99.90
23629;DHT22;11991;57.150;-2.134;2023-10-19T07:48:17;11.60;99.90
23629;DHT22;11991;57.150;-2.134;2023-10-19T07:50:44;11.60;99.90
23629;DHT22;11991;57.150;-2.134;2023-10-19T07:53:11;11.60;99.90
23629;DHT22;11991;57.150;-2.134;2023-10-19T07:55:39;11.60;99.90
23629;DHT22;11991;57.150;-2.134;2023-10-19T07:58:07;11.60;99.90
23629;DHT22;11991;57.150;-2.134;2023-10-19T08:00:34;11.60;99.90
23629;DHT22;11991;57.150;-2.134;2023-10-19T08:03:03;11.60;99.90
23629;DHT22;11991;57.150;-2.134;2023-10-19T08:05:32;11.60;99.90
23629;DHT22;11991;57.150;-2.134;2023-10-19T08:08:01;11.60;99.90
23629;DHT22;11991;57.150;-2.134;2023-10-19T08:10:31;11.60;99.90
23629;DHT22;11991;57.150;-2.134;2023-10-19T08:12:58;11.60;99.90
23629;DHT22;11991;57.150;-2.134;2023-10-19T08:15:27;11.60;99.90
23629;DHT22;11991;57.150;-2.134;2023-10-19T08:17:56;11.60;99.90
23629;DHT22;11991;57.150;-2.134;2023-10-19T08:20:23;11.60;99.90
23629;DHT22;11991;57.150;-2.134;2023-10-19T08:22:53;11.60;99.90
23629;DHT22;11991;57.150;-2.134;2023-10-19T08:25:21;11.60;99.90
23629;DHT22;11991;57.150;-2.134;2023-10-19T08:27:49;11.50;99.90
23629;DHT22;11991;57.150;-2.134;2023-10-19T08:30:23;11.50;99.90
23629;DHT22;11991;57.150;-2.134;2023-10-19T08:32:54;11.50;99.90
23629;DHT22;11991;57.150;-2.134;2023-10-19T08:35:22;11.50;99.90
23629;DHT22;11991;57.150;-2.134;2023-10-19T08:37:53;11.50;99.90
23629;DHT22;11991;57.150;-2.134;2023-10-19T08:40:21;11.50;99.90
23629;DHT22;11991;57.150;-2.134;2023-10-19T08:42:50;11.50;99.90
23629;DHT22;11991;57.150;-2.134;2023-10-19T08:45:19;11.50;99.90
23629;DHT22;11991;57.150;-2.134;2023-10-19T08:47:54;11.40;99.90
23629;DHT22;11991;57.150;-2.134;2023-10-19T08:50:25;11.40;99.90
23629;DHT22;11991;57.150;-2.134;2023-10-19T08:52:55;11.40;99.90
23629;DHT22;11991;57.150;-2.134;2023-10-19T08:55:23;11.40;99.90
23629;DHT22;11991;57.150;-2.134;2023-10-19T08:58:10;11.30;99.90
23629;DHT22;11991;57.150;-2.134;2023-10-19T09:00:48;11.30;99.90
23629;DHT22;11991;57.150;-2.134;2023-10-19T09:03:16;11.20;99.90
23629;DHT22;11991;57.150;-2.134;2023-10-19T09:05:45;11.10;99.90
23629;DHT22;11991;57.150;-2.134;2023-10-19T09:08:19;11.10;99.90
23629;DHT22;11991;57.150;-2.134;2023-10-19T09:10:50;11.10;99.90
23629;DHT22;11991;57.150;-2.134;2023-10-19T09:13:22;11.10;99.90
23629;DHT22;11991;57.150;-2.134;2023-10-19T09:15:51;11.10;99.90
23629;DHT22;11991;57.150;-2.134;2023-10-19T09:18:25;11.00;99.90
23629;DHT22;11991;57.150;-2.134;2023-10-19T09:20:56;11.00;99.90
23629;DHT22;11991;57.150;-2.134;2023-10-19T09:23:32;11.00;99.90
23629;DHT22;11991;57.150;-2.134;2023-10-19T09:26:01;10.90;99.90
23629;DHT22;11991;57.150;-2.134;2023-10-19T09:28:36;10.80;99.90
23629;DHT22;11991;57.150;-2.134;2023-10-19T09:31:04;10.80;99.90
23629;DHT22;11991;57.150;-2.134;2023-10-19T09:33:33;10.80;99.90
23629;DHT22;11991;57.150;-2.134;2023-10-19T09:36:02;10.80;99.90
23629;DHT22;11991;57.150;-2.134;2023-10-19T09:38:32;10.90;99.90
23629;DHT22;11991;57.150;-2.134;2023-10-19T09:41:00;10.90;99.90
23629;DHT22;11991;57.150;-2.134;2023-10-19T09:43:34;10.90;99.90
23629;DHT22;11991;57.150;-2.134;2023-10-19T09:46:09;11.00;99.90
23629;DHT22;11991;57.150;-2.134;2023-10-19T09:48:43;11.00;99.90
23629;DHT22;11991;57.150;-2.134;2023-10-19T09:51:13;11.00;99.90
23629;DHT22;11991;57.150;-2.134;2023-10-19T09:54:06;11.10;99.90
23629;DHT22;11991;57.150;-2.134;2023-10-19T09:56:40;11.00;99.90
23629;DHT22;11991;57.150;-2.134;2023-10-19T09:59:35;11.10;99.90
23629;DHT22;11991;57.150;-2.134;2023-10-19T10:02:08;11.00;99.90
23629;DHT22;11991;57.150;-2.134;2023-10-19T10:04:39;11.00;99.90
23629;DHT22;11991;57.150;-2.134;2023-10-19T10:07:13;11.00;99.90
23629;DHT22;11991;57.150;-2.134;2023-10-19T10:09:48;11.00;99.90
23629;DHT22;11991;57.150;-2.134;2023-10-19T10:14:58;11.10;99.90
23629;DHT22;11991;57.150;-2.134;2023-10-19T10:17:26;11.10;99.90
23629;DHT22;11991;57.150;-2.134;2023-10-19T10:19:56;11.10;99.90
23629;DHT22;11991;57.150;-2.134;2023-10-19T10:22:26;11.10;99.90
23629;DHT22;11991;57.150;-2.134;2023-10-19T10:24:55;11.10;99.90
23629;DHT22;11991;57.150;-2.134;2023-10-19T10:27:25;11.10;99.90
23629;DHT22;11991;57.150;-2.134;2023-10-19T10:30:00;11.20;99.90
23629;DHT22;11991;57.150;-2.134;2023-10-19T10:32:53;11.20;99.90
23629;DHT22;11991;57.150;-2.134;2023-10-19T10:35:54;11.20;99.90
23629;DHT22;11991;57.150;-2.134;2023-10-19T10:38:21;11.20;99.90
23629;DHT22;11991;57.150;-2.134;2023-10-19T10:40:51;11.20;99.90
23629;DHT22;11991;57.150;-2.134;2023-10-19T10:43:20;11.20;99.90
23629;DHT22;11991;57.150;-2.134;2023-10-19T10:45:48;11.20;99.90
23629;DHT22;11991;57.150;-2.134;2023-10-19T10:48:17;11.20;99.90
23629;DHT22;11991;57.150;-2.134;2023-10-19T10:50:46;11.20;99.90
23629;DHT22;11991;57.150;-2.134;2023-10-19T10:53:14;11.20;99.90
23629;DHT22;11991;57.150;-2.134;2023-10-19T10:55:45;11.30;99.90
23629;DHT22;11991;57.150;-2.134;2023-10-19T10:58:19;11.30;99.90
23629;DHT22;11991;57.150;-2.134;2023-10-19T11:00:47;11.20;99.90
23629;DHT22;11991;57.150;-2.134;2023-10-19T11:03:16;11.30;99.90
23629;DHT22;11991;57.150;-2.134;2023-10-19T11:05:43;11.30;99.90
23629;DHT22;11991;57.150;-2.134;2023-10-19T11:08:16;11.30;99.90
23629;DHT22;11991;57.150;-2.134;2023-10-19T11:10:45;11.30;99.90
23629;DHT22;11991;57.150;-2.134;2023-10-19T11:13:17;11.20;99.90
23629;DHT22;11991;57.150;-2.134;2023-10-19T11:15:49;11.20;99.90
23629;DHT22;11991;57.150;-2.134;2023-10-19T11:18:37;11.20;99.90
23629;DHT22;11991;57.150;-2.134;2023-10-19T11:21:11;11.20;99.90
23629;DHT22;11991;57.150;-2.134;2023-10-19T11:23:39;11.20;99.90
23629;DHT22;11991;57.150;-2.134;2023-10-19T11:26:07;11.10;99.90
23629;DHT22;11991;57.150;-2.134;2023-10-19T11:28:34;11.10;99.90
23629;DHT22;11991;57.150;-2.134;2023-10-19T11:31:13;11.10;99.90
23629;DHT22;11991;57.150;-2.134;2023-10-19T11:33:42;11.10;99.90
23629;DHT22;11991;57.150;-2.134;2023-10-19T11:36:12;11.10;99.90
23629;DHT22;11991;57.150;-2.134;2023-10-19T11:38:44;11.10;99.90
23629;DHT22;11991;57.150;-2.134;2023-10-19T11:41:15;11.10;99.90
23629;DHT22;11991;57.150;-2.134;2023-10-19T11:43:46;11.10;99.90
23629;DHT22;11991;57.150;-2.134;2023-10-19T11:46:14;11.00;99.90
23629;DHT22;11991;57.150;-2.134;2023-10-19T11:48:42;11.00;99.90
23629;DHT22;11991;57.150;-2.134;2023-10-19T11:51:12;11.00;99.90
23629;DHT22;11991;57.150;-2.134;2023-10-19T11:53:41;11.00;99.90
23629;DHT22;11991;57.150;-2.134;2023-10-19T11:56:11;11.00;99.90
23629;DHT22;11991;57.150;-2.134;2023-10-19T11:58:40;11.00;99.90
23629;DHT22;11991;57.150;-2.134;2023-10-19T12:01:10;10.90;99.90
23629;DHT22;11991;57.150;-2.134;2023-10-19T12:03:41;11.00;99.90
23629;DHT22;11991;57.150;-2.134;2023-10-19T12:06:11;10.90;99.90
23629;DHT22;11991;57.150;-2.134;2023-10-19T12:08:39;10.90;99.90
23629;DHT22;11991;57.150;-2.134;2023-10-19T12:11:07;10.90;99.90
23629;DHT22;11991;57.150;-2.134;2023-10-19T12:13:47;10.90;99.90
23629;DHT22;11991;57.150;-2.134;2023-10-19T12:16:15;10.90;99.90
23629;DHT22;11991;57.150;-2.134;2023-10-19T12:18:44;10.90;99.90
23629;DHT22;11991;57.150;-2.134;2023-10-19T12:21:11;10.90;99.90
23629;DHT22;11991;57.150;-2.134;2023-10-19T12:23:39;10.90;99.90
23629;DHT22;11991;57.150;-2.134;2023-10-19T12:26:07;10.90;99.90
23629;DHT22;11991;57.150;-2.134;2023-10-19T12:28:42;10.90;99.90
23629;DHT22;11991;57.150;-2.134;2023-10-19T12:31:13;10.90;99.90
23629;DHT22;11991;57.150;-2.134;2023-10-19T12:33:42;10.90;99.90
23629;DHT22;11991;57.150;-2.134;2023-10-19T12:36:09;10.90;99.90
23629;DHT22;11991;57.150;-2.134;2023-10-19T12:38:51;10.90;99.90
23629;DHT22;11991;57.150;-2.134;2023-10-19T12:41:19;10.90;99.90
23629;DHT22;11991;57.150;-2.134;2023-10-19T12:43:48;10.90;99.90
23629;DHT22;11991;57.150;-2.134;2023-10-19T12:46:21;10.90;99.90
23629;DHT22;11991;57.150;-2.134;2023-10-19T12:48:52;10.90;99.90
23629;DHT22;11991;57.150;-2.134;2023-10-19T12:51:19;10.90;99.90
23629;DHT22;11991;57.150;-2.134;2023-10-19T12:53:51;10.80;99.90
23629;DHT22;11991;57.150;-2.134;2023-10-19T12:56:19;10.80;99.90
23629;DHT22;11991;57.150;-2.134;2023-10-19T12:58:47;10.80;99.90
23629;DHT22;11991;57.150;-2.134;2023-10-19T13:01:17;10.70;99.90
23629;DHT22;11991;57.150;-2.134;2023-10-19T13:03:46;10.70;99.90
23629;DHT22;11991;57.150;-2.134;2023-10-19T13:06:14;10.70;99.90
23629;DHT22;11991;57.150;-2.134;2023-10-19T13:08:42;10.70;99.90
23629;DHT22;11991;57.150;-2.134;2023-10-19T13:11:09;10.70;99.90
23629;DHT22;11991;57.150;-2.134;2023-10-19T13:13:45;10.60;99.90
23629;DHT22;11991;57.150;-2.134;2023-10-19T13:16:14;10.70;99.90
23629;DHT22;11991;57.150;-2.134;2023-10-19T13:18:41;10.60;99.90
23629;DHT22;11991;57.150;-2.134;2023-10-19T13:21:09;10.60;99.90
23629;DHT22;11991;57.150;-2.134;2023-10-19T13:23:44;10.60;99.90
23629;DHT22;11991;57.150;-2.134;2023-10-19T13:26:12;10.60;99.90
23629;DHT22;11991;57.150;-2.134;2023-10-19T13:28:42;10.60;99.90
23629;DHT22;11991;57.150;-2.134;2023-10-19T13:31:10;10.60;99.90
23629;DHT22;11991;57.150;-2.134;2023-10-19T13:33:38;10.60;99.90
23629;DHT22;11991;57.150;-2.134;2023-10-19T13:36:05;10.60;99.90
23629;DHT22;11991;57.150;-2.134;2023-10-19T13:38:33;10.60;99.90
23629;DHT22;11991;57.150;-2.134;2023-10-19T13:41:06;10.60;99.90
23629;DHT22;11991;57.150;-2.134;2023-10-19T13:43:41;10.60;99.90
23629;DHT22;11991;57.150;-2.134;2023-10-19T13:46:11;10.60;99.90
23629;DHT22;11991;57.150;-2.134;2023-10-19T13:48:39;10.60;99.90
23629;DHT22;11991;57.150;-2.134;2023-10-19T13:51:07;10.60;99.90
23629;DHT22;11991;57.150;-2.134;2023-10-19T13:53:44;10.60;99.90
23629;DHT22;11991;57.150;-2.134;2023-10-19T13:56:12;10.60;99.90
23629;DHT22;11991;57.150;-2.134;2023-10-19T13:58:42;10.60;99.90
23629;DHT22;11991;57.150;-2.134;2023-10-19T14:01:10;10.60;99.90
23629;DHT22;11991;57.150;-2.134;2023-10-19T14:03:40;10.60;99.90
23629;DHT22;11991;57.150;-2.134;2023-10-19T14:06:14;10.60;99.90
23629;DHT22;11991;57.150;-2.134;2023-10-19T14:08:42;10.60;99.90
23629;DHT22;11991;57.150;-2.134;2023-10-19T14:11:09;10.60;99.90
23629;DHT22;11991;57.150;-2.134;2023-10-19T14:13:36;10.60;99.90
23629;DHT22;11991;57.150;-2.134;2023-10-19T14:16:07;10.70;99.90
23629;DHT22;11991;57.150;-2.134;2023-10-19T14:18:36;10.70;99.90
23629;DHT22;11991;57.150;-2.134;2023-10-19T14:21:17;10.70;99.90
23629;DHT22;11991;57.150;-2.134;2023-10-19T14:23:46;10.70;99.90
23629;DHT22;11991;57.150;-2.134;2023-10-19T14:26:15;10.70;99.90
23629;DHT22;11991;57.150;-2.134;2023-10-19T14:28:42;10.70;99.90
23629;DHT22;11991;57.150;-2.134;2023-10-19T14:31:10;10.80;99.90
23629;DHT22;11991;57.150;-2.134;2023-10-19T14:33:38;10.70;99.90
23629;DHT22;11991;57.150;-2.134;2023-10-19T14:36:06;10.80;99.90
23629;DHT22;11991;57.150;-2.134;2023-10-19T14:38:34;10.70;99.90
23629;DHT22;11991;57.150;-2.134;2023-10-19T14:41:02;10.70;99.90
23629;DHT22;11991;57.150;-2.134;2023-10-19T14:43:29;10.70;99.90
23629;DHT22;11991;57.150;-2.134;2023-10-19T14:45:57;10.70;99.90
23629;DHT22;11991;57.150;-2.134;2023-10-19T14:48:24;10.70;99.90
23629;DHT22;11991;57.150;-2.134;2023-10-19T14:50:51;10.70;99.90
23629;DHT22;11991;57.150;-2.134;2023-10-19T14:53:18;10.70;99.90
23629;DHT22;11991;57.150;-2.134;2023-10-19T14:55:46;10.70;99.90
23629;DHT22;11991;57.150;-2.134;2023-10-19T14:58:13;10.70;99.90
23629;DHT22;11991;57.150;-2.134;2023-10-19T15:00:40;10.70;99.90
23629;DHT22;11991;57.150;-2.134;2023-10-19T15:03:12;10.70;99.90
23629;DHT22;11991;57.150;-2.134;2023-10-19T15:05:40;10.70;99.90
23629;DHT22;11991;57.150;-2.134;2023-10-19T15:08:10;10.80;99.90
23629;DHT22;11991;57.150;-2.134;2023-10-19T15:10:40;10.70;99.90
23629;DHT22;11991;57.150;-2.134;2023-10-19T15:13:11;10.70;99.90
23629;DHT22;11991;57.150;-2.134;2023-10-19T15:15:38;10.70;99.90
23629;DHT22;11991;57.150;-2.134;2023-10-19T15:18:05;10.70;99.90
23629;DHT22;11991;57.150;-2.134;2023-10-19T15:20:32;10.70;99.90
23629;DHT22;11991;57.150;-2.134;2023-10-19T15:23:00;10.70;99.90
23629;DHT22;11991;57.150;-2.134;2023-10-19T15:25:28;10.70;99.90
23629;DHT22;11991;57.150;-2.134;2023-10-19T15:27:55;10.70;99.90
23629;DHT22;11991;57.150;-2.134;2023-10-19T15:30:22;10.70;99.90
23629;DHT22;11991;57.150;-2.134;2023-10-19T15:32:52;10.60;99.90
23629;DHT22;11991;57.150;-2.134;2023-10-19T15:35:23;10.70;99.90
23629;DHT22;11991;57.150;-2.134;2023-10-19T15:37:52;10.70;99.90
23629;DHT22;11991;57.150;-2.134;2023-10-19T15:40:24;10.70;99.90
23629;DHT22;11991;57.150;-2.134;2023-10-19T15:42:52;10.60;99.90